Time;durP1;ratioP1;P1;durP2;ratioP2;P2;SDS_P1;SDS_P2;PMS_P1;PMS_P2;Temp;Humidity;BMP_temperature;BMP_pressure;BME280_temperature;BME280_humidity;BME280_pressure;Samples;Min_cycle;Max_cycle;Signal;HPM_P1;HPM_P2
2023/05/02 00:00:44;;;;;;;3.03;2.73;;;;;;;16.60;49.87;94928.66;5129646;27;20188;-48
2023/05/02 00:03:11;;;;;;;2.77;2.57;;;;;;;16.58;49.91;94925.47;5113924;27;20668;-49
2023/05/02 00:05:39;;;;;;;4.23;2.87;;;;;;;16.52;49.85;94916.59;5110402;28;20295;-49
2023/05/02 00:08:06;;;;;;;4.27;3.03;;;;;;;16.52;49.75;94921.75;5113133;28;20193;-49
2023/05/02 00:10:34;;;;;;;3.10;2.90;;;;;;;16.35;50.06;94896.19;5111949;27;20189;-48
2023/05/02 00:13:01;;;;;;;3.20;2.80;;;;;;;16.45;50.26;94914.84;5130410;27;20199;-49
2023/05/02 00:15:29;;;;;;;4.13;3.10;;;;;;;16.46;50.34;94921.63;5130593;27;20226;-47
2023/05/02 00:17:56;;;;;;;3.33;3.03;;;;;;;16.44;50.45;94919.19;5131192;27;20200;-49
2023/05/02 00:20:23;;;;;;;2.87;2.67;;;;;;;16.44;50.52;94921.78;5130436;27;20184;-48
2023/05/02 00:22:49;;;;;;;3.50;3.13;;;;;;;16.45;50.62;94925.16;5130624;27;20560;-48
2023/05/02 00:25:16;;;;;;;4.30;3.37;;;;;;;16.44;50.65;94923.56;5129988;27;20228;-49
2023/05/02 00:27:45;;;;;;;5.23;2.73;;;;;;;16.41;50.61;94927.31;5130520;27;20199;-50
2023/05/02 00:30:13;;;;;;;3.60;3.30;;;;;;;16.46;50.73;94935.34;5129737;27;20274;-48
2023/05/02 00:32:40;;;;;;;3.80;3.07;;;;;;;16.47;51.10;94939.53;5130033;27;20195;-48
2023/05/02 00:35:08;;;;;;;3.33;2.97;;;;;;;16.49;50.89;94939.34;5130455;27;20188;-49
2023/05/02 00:37:35;;;;;;;3.40;3.10;;;;;;;16.49;50.89;94940.19;5130629;27;20180;-50
2023/05/02 00:40:02;;;;;;;3.40;3.13;;;;;;;16.51;51.02;94947.75;5130464;27;20180;-49
2023/05/02 00:42:30;;;;;;;3.10;2.90;;;;;;;16.53;51.13;94956.13;5129907;27;20188;-50
2023/05/02 00:44:58;;;;;;;3.67;3.37;;;;;;;16.53;51.10;94954.34;5130026;27;20220;-50
2023/05/02 00:47:25;;;;;;;3.53;2.90;;;;;;;16.54;51.04;94958.56;5129670;27;20252;-49
2023/05/02 00:49:52;;;;;;;3.40;3.10;;;;;;;16.55;51.02;94962.72;5130085;27;20188;-48
2023/05/02 00:52:19;;;;;;;2.97;2.77;;;;;;;16.45;51.13;94938.06;5129970;27;20283;-49
2023/05/02 00:54:47;;;;;;;3.33;3.03;;;;;;;16.56;51.09;94953.22;5130360;27;20186;-48
2023/05/02 00:57:14;;;;;;;3.77;3.20;;;;;;;16.52;51.26;94945.00;5130098;27;20257;-50
2023/05/02 00:59:41;;;;;;;3.23;3.03;;;;;;;16.55;51.32;94944.66;5129681;27;20206;-49
2023/05/02 01:02:25;;;;;;;3.13;2.93;;;;;;;16.58;51.50;94945.28;5129318;27;20223;-48
2023/05/02 01:05:01;;;;;;;3.77;3.00;;;;;;;16.56;51.14;94946.25;5129988;27;20637;-48
2023/05/02 01:07:42;;;;;;;3.87;3.47;;;;;;;16.56;51.24;94943.69;5130153;27;20203;-51
2023/05/02 01:10:20;;;;;;;3.67;2.60;;;;;;;16.10;51.42;94870.47;5129669;28;20687;-50
2023/05/02 01:12:54;;;;;;;3.50;3.07;;;;;;;16.55;51.34;94938.69;5129698;28;20973;-49
2023/05/02 01:15:23;;;;;;;3.60;3.30;;;;;;;16.55;51.56;94946.44;5132916;27;20223;-48
2023/05/02 01:17:54;;;;;;;2.93;2.73;;;;;;;16.54;51.52;94944.84;5134603;27;20624;-49
2023/05/02 01:20:23;;;;;;;7.37;3.83;;;;;;;16.52;51.56;94936.44;5134726;27;20188;-49
2023/05/02 01:22:51;;;;;;;3.87;3.20;;;;;;;16.51;51.90;94934.84;5134184;27;20218;-48
2023/05/02 01:25:26;;;;;;;5.53;3.20;;;;;;;16.49;51.95;94929.03;5133620;27;20220;-49
2023/05/02 01:28:03;;;;;;;4.00;3.70;;;;;;;16.47;52.08;94923.25;5133782;27;20188;-49
2023/05/02 01:30:34;;;;;;;3.67;3.30;;;;;;;16.44;52.05;94911.47;5133552;27;20188;-49
2023/05/02 01:33:03;;;;;;;4.20;3.70;;;;;;;16.46;52.18;94932.75;5133770;27;20177;-50
2023/05/02 01:35:32;;;;;;;3.13;2.93;;;;;;;16.42;52.48;94925.53;5133521;27;20729;-49
2023/05/02 01:38:00;;;;;;;3.27;3.00;;;;;;;16.43;52.51;94927.13;5133985;27;20624;-48
2023/05/02 01:40:27;;;;;;;4.53;3.00;;;;;;;16.27;52.83;94913.28;5133621;27;20292;-49
2023/05/02 01:42:55;;;;;;;3.17;2.90;;;;;;;16.41;52.74;94935.06;5134535;27;20196;-49
2023/05/02 01:45:24;;;;;;;3.03;2.73;;;;;;;16.37;52.64;94927.81;5134118;27;20216;-48
2023/05/02 01:47:52;;;;;;;4.57;3.30;;;;;;;16.37;52.75;94938.13;5133203;27;20214;-48
2023/05/02 01:50:23;;;;;;;4.07;3.10;;;;;;;16.36;52.94;94936.50;5133915;27;20195;-48
2023/05/02 01:52:52;;;;;;;2.93;2.70;;;;;;;16.33;53.20;94932.50;5133539;27;20279;-48
2023/05/02 01:55:20;;;;;;;3.47;3.17;;;;;;;16.30;53.08;94931.03;5133389;27;20177;-49
2023/05/02 01:57:50;;;;;;;3.03;2.83;;;;;;;16.30;53.62;94925.06;5133318;27;20188;-50
2023/05/02 02:00:18;;;;;;;3.80;3.23;;;;;;;16.29;53.44;94928.63;5133131;27;20216;-49
2023/05/02 02:02:47;;;;;;;5.47;3.27;;;;;;;16.27;53.72;94933.16;5132993;27;20192;-48
2023/05/02 02:05:18;;;;;;;3.30;3.10;;;;;;;16.22;53.89;94914.78;5133278;27;20208;-49
2023/05/02 02:07:46;;;;;;;3.73;2.80;;;;;;;16.21;53.83;94919.13;5133041;27;20195;-49
2023/05/02 02:10:13;;;;;;;3.53;3.23;;;;;;;16.20;54.13;94925.28;5132850;27;20180;-49
2023/05/02 02:12:43;;;;;;;5.03;3.30;;;;;;;16.16;54.05;94912.88;5133091;27;20188;-50
2023/05/02 02:15:20;;;;;;;4.43;3.27;;;;;;;16.17;54.07;94919.63;5132791;27;20193;-49
2023/05/02 02:17:54;;;;;;;3.40;3.10;;;;;;;15.94;54.19;94886.81;5132622;27;20616;-48
2023/05/02 02:20:22;;;;;;;3.10;2.90;;;;;;;16.13;54.39;94911.41;5132994;27;20185;-49
2023/05/02 02:22:50;;;;;;;3.40;2.77;;;;;;;16.12;54.50;94921.91;5132821;27;20225;-49
2023/05/02 02:25:18;;;;;;;3.17;2.90;;;;;;;16.05;54.57;94919.19;5131487;27;20684;-49
2023/05/02 02:27:45;;;;;;;3.30;3.10;;;;;;;16.09;54.47;94924.81;5132343;27;20199;-49
2023/05/02 02:30:12;;;;;;;3.53;3.23;;;;;;;15.90;54.73;94902.78;5132481;27;20196;-50
2023/05/02 02:32:39;;;;;;;3.93;3.17;;;;;;;16.07;54.76;94927.56;5131660;27;20189;-49
2023/05/02 02:35:07;;;;;;;4.13;2.73;;;;;;;16.07;54.76;94929.34;5132273;27;20260;-49
2023/05/02 02:37:39;;;;;;;3.53;3.23;;;;;;;16.01;54.76;94921.28;5111782;28;20185;-49
2023/05/02 02:40:12;;;;;;;3.43;3.13;;;;;;;16.03;54.61;94940.00;5131241;27;20196;-48
2023/05/02 02:42:45;;;;;;;3.33;3.10;;;;;;;16.03;54.85;94929.69;5132069;27;20192;-49
2023/05/02 02:45:26;;;;;;;3.50;3.20;;;;;;;16.02;54.53;94942.75;5132397;27;20273;-50
2023/05/02 02:48:03;;;;;;;3.10;2.90;;;;;;;16.02;54.90;94937.59;5131246;27;20189;-49
2023/05/02 02:50:35;;;;;;;3.00;2.80;;;;;;;15.95;54.81;94942.59;5132262;27;20635;-48
2023/05/02 02:53:05;;;;;;;3.70;3.40;;;;;;;15.98;54.60;94947.44;5131778;27;20629;-48
2023/05/02 02:55:40;;;;;;;5.40;3.27;;;;;;;15.97;54.59;94952.72;5132532;27;20196;-48
2023/05/02 02:58:25;;;;;;;3.47;3.10;;;;;;;15.96;54.71;94956.28;5131840;27;20191;-49
2023/05/02 03:00:53;;;;;;;3.23;2.93;;;;;;;15.94;54.36;94960.81;5131344;27;20652;-50
2023/05/02 03:03:23;;;;;;;6.27;3.17;;;;;;;15.94;54.55;94971.13;5131077;27;20187;-49
2023/05/02 03:05:51;;;;;;;3.87;2.63;;;;;;;15.92;54.49;94960.16;5131883;27;20306;-48
2023/05/02 03:08:19;;;;;;;3.40;3.13;;;;;;;15.91;54.58;94969.69;5132192;27;20188;-49
2023/05/02 03:10:46;;;;;;;3.83;3.53;;;;;;;15.89;54.38;94974.22;5131662;27;20241;-49
2023/05/02 03:13:12;;;;;;;3.63;3.33;;;;;;;15.83;54.16;94967.09;5131801;27;20191;-49
2023/05/02 03:16:30;;;;;;;3.63;3.17;;;;;;;15.87;54.21;94980.50;5131629;27;20188;-49
2023/05/02 03:18:57;;;;;;;3.67;3.37;;;;;;;15.85;54.20;94988.41;5007869;28;20220;-48
2023/05/02 03:21:23;;;;;;;6.00;3.27;;;;;;;15.83;54.20;94985.16;5008817;28;20621;-50
2023/05/02 03:23:52;;;;;;;3.50;3.20;;;;;;;15.82;54.31;94980.97;5010215;28;20228;-48
2023/05/02 03:26:18;;;;;;;4.40;3.33;;;;;;;15.83;54.33;94984.34;5007900;28;20227;-49
2023/05/02 03:28:45;;;;;;;3.63;3.33;;;;;;;15.82;54.16;94983.56;5008428;28;20192;-49
2023/05/02 03:31:13;;;;;;;5.03;3.43;;;;;;;15.83;54.16;94986.94;5008028;28;20239;-48
2023/05/02 03:33:40;;;;;;;3.30;2.87;;;;;;;15.85;54.22;94982.44;5008056;28;20266;-49
2023/05/02 03:36:07;;;;;;;3.23;3.03;;;;;;;15.86;54.27;94979.69;5008130;28;20227;-48
2023/05/02 03:38:34;;;;;;;3.90;3.50;;;;;;;15.83;54.39;94976.63;5007340;28;20181;-49
2023/05/02 03:41:03;;;;;;;3.93;3.63;;;;;;;15.92;54.15;94980.81;5007919;28;20229;-49
2023/05/02 03:43:29;;;;;;;3.67;3.37;;;;;;;15.95;54.11;94985.63;5008088;28;20738;-49
2023/05/02 03:45:56;;;;;;;4.37;3.43;;;;;;;15.98;54.00;94986.13;5007422;28;20228;-50
2023/05/02 03:48:23;;;;;;;3.57;3.27;;;;;;;16.03;54.15;94990.78;5007269;28;20192;-49
2023/05/02 03:50:50;;;;;;;5.10;3.43;;;;;;;16.08;54.06;94987.72;5049459;28;20252;-49
2023/05/02 03:53:17;;;;;;;5.53;3.70;;;;;;;16.12;54.41;94989.81;5067584;28;20186;-48
2023/05/02 03:55:44;;;;;;;3.90;3.60;;;;;;;16.16;54.24;94987.72;5102196;27;20196;-48
2023/05/02 03:58:12;;;;;;;3.90;3.43;;;;;;;16.21;54.25;94981.06;5130974;27;20271;-48
2023/05/02 04:00:39;;;;;;;4.87;3.33;;;;;;;16.28;54.17;94986.38;5130485;27;20252;-49
2023/05/02 04:03:06;;;;;;;6.53;3.00;;;;;;;15.85;54.04;94905.88;5130009;27;20184;-49
2023/05/02 04:05:33;;;;;;;3.60;3.30;;;;;;;16.40;53.96;94994.56;5130355;27;20646;-49
2023/05/02 04:08:01;;;;;;;4.03;3.33;;;;;;;16.31;53.97;94966.19;5130619;27;20644;-50
2023/05/02 04:10:28;;;;;;;3.27;3.07;;;;;;;16.54;53.92;94993.91;5130717;27;20196;-49
2023/05/02 04:12:55;;;;;;;3.87;3.57;;;;;;;16.62;53.76;94993.03;5130746;27;20204;-48
2023/05/02 04:15:23;;;;;;;3.47;3.17;;;;;;;16.69;53.53;94989.63;5130434;27;20188;-48
2023/05/02 04:17:49;;;;;;;3.70;3.40;;;;;;;16.74;53.41;94991.72;5120303;27;20183;-49
2023/05/02 04:20:17;;;;;;;4.37;3.43;;;;;;;16.81;53.51;94982.34;5130247;27;20185;-49
2023/05/02 04:22:45;;;;;;;3.70;3.40;;;;;;;16.87;53.30;94983.44;5129365;27;20672;-50
2023/05/02 04:25:12;;;;;;;4.00;3.70;;;;;;;16.89;53.39;94982.31;5125327;27;20212;-49
2023/05/02 04:27:38;;;;;;;5.07;3.50;;;;;;;16.99;53.49;94993.22;5122940;27;20211;-49
2023/05/02 04:30:06;;;;;;;5.33;3.80;;;;;;;17.03;53.24;94991.13;5128952;27;20184;-49
2023/05/02 04:32:35;;;;;;;4.13;3.33;;;;;;;17.12;53.26;94986.72;5114461;27;20188;-48
2023/05/02 04:35:01;;;;;;;3.90;3.47;;;;;;;17.21;53.04;94981.31;5129991;27;20195;-48
2023/05/02 04:37:28;;;;;;;3.80;3.40;;;;;;;17.28;52.91;94971.09;5129762;27;20191;-48
2023/05/02 04:39:55;;;;;;;3.87;3.57;;;;;;;17.51;52.83;94994.38;5129948;27;20189;-49
2023/05/02 04:42:22;;;;;;;3.50;3.20;;;;;;;17.82;52.38;94980.56;5130148;27;20228;-48
2023/05/02 04:44:49;;;;;;;3.50;3.20;;;;;;;18.28;51.65;94986.44;5130301;27;20196;-49
2023/05/02 04:47:16;;;;;;;15.63;3.20;;;;;;;18.91;59.59;94981.69;5129687;27;20212;-48
2023/05/02 04:49:44;;;;;;;7.93;3.20;;;;;;;19.43;60.53;94967.69;5129669;27;20177;-48
2023/05/02 04:52:11;;;;;;;3.70;2.83;;;;;;;20.28;59.42;94997.94;5129738;27;20199;-50
2023/05/02 04:54:38;;;;;;;3.07;2.80;;;;;;;20.95;57.71;94988.72;5131097;27;20184;-49
2023/05/02 04:57:06;;;;;;;6.00;2.63;;;;;;;21.59;55.90;94993.53;5130367;27;20197;-50
2023/05/02 04:59:33;;;;;;;10.30;3.00;;;;;;;22.18;54.45;94990.16;5129880;27;20196;-47
2023/05/02 05:02:00;;;;;;;4.22;2.63;;;;;;;22.75;53.18;94987.81;5129136;27;20184;-48
2023/05/02 05:04:27;;;;;;;6.35;3.35;;;;;;;23.25;51.77;94988.84;5129778;27;20269;-47
2023/05/02 05:06:55;;;;;;;3.85;2.70;;;;;;;23.70;50.07;94980.16;5129898;27;20223;-47
2023/05/02 05:09:22;;;;;;;3.00;2.60;;;;;;;24.09;48.69;94984.28;5130390;27;20196;-49
2023/05/02 05:11:49;;;;;;;3.45;2.28;;;;;;;24.38;47.37;94989.88;5129962;27;20193;-48
2023/05/02 05:14:15;;;;;;;3.10;2.80;;;;;;;24.72;46.30;94989.31;5130038;27;20184;-48
2023/05/02 05:16:42;;;;;;;3.85;2.65;;;;;;;24.97;45.29;94983.22;5129672;27;20249;-48
2023/05/02 05:19:09;;;;;;;2.58;2.38;;;;;;;25.20;44.68;94982.53;5129985;27;20618;-48
2023/05/02 05:21:36;;;;;;;3.35;3.00;;;;;;;25.39;44.08;94985.91;5130102;27;20176;-47
2023/05/02 05:24:05;;;;;;;3.13;2.83;;;;;;;25.69;43.26;94993.75;5129716;27;20227;-48
2023/05/02 05:26:32;;;;;;;7.22;4.25;;;;;;;25.96;43.06;95005.47;5129950;27;20219;-48
2023/05/02 05:28:59;;;;;;;8.82;4.40;;;;;;;26.23;42.72;95003.19;5129593;27;20548;-50
2023/05/02 05:31:25;;;;;;;5.78;4.20;;;;;;;26.48;42.78;95005.63;5129668;27;20291;-49
2023/05/02 05:33:52;;;;;;;4.05;3.40;;;;;;;26.72;42.92;95003.78;5129462;27;20188;-49
2023/05/02 05:36:19;;;;;;;4.88;3.40;;;;;;;26.95;42.43;95005.56;5129690;27;20195;-48
2023/05/02 05:38:46;;;;;;;5.00;3.08;;;;;;;27.14;41.68;95006.22;5128686;27;20192;-49
2023/05/02 05:41:14;;;;;;;7.20;3.38;;;;;;;27.34;40.88;95010.28;5129994;27;20192;-48
2023/05/02 05:43:41;;;;;;;4.95;2.83;;;;;;;27.56;40.96;95010.41;5129155;28;20188;-49
2023/05/02 05:46:08;;;;;;;6.03;3.00;;;;;;;27.79;40.07;95026.09;5129511;28;20224;-48
2023/05/02 05:48:35;;;;;;;5.90;2.97;;;;;;;27.97;39.76;95014.53;5127955;27;20617;-48
2023/05/02 05:51:07;;;;;;;4.55;3.00;;;;;;;28.17;39.02;95017.50;5110595;28;20200;-50
2023/05/02 05:53:34;;;;;;;4.60;2.63;;;;;;;28.38;38.39;95007.31;5112609;28;20252;-49
2023/05/02 05:56:09;;;;;;;6.00;2.75;;;;;;;28.56;38.15;95009.69;5129850;27;20184;-50
2023/05/02 05:58:37;;;;;;;4.82;2.85;;;;;;;28.72;37.19;95019.38;5128942;27;20708;-49
2023/05/02 06:01:04;;;;;;;4.95;2.95;;;;;;;28.88;36.73;95030.91;5130819;27;20665;-48
2023/05/02 06:03:31;;;;;;;3.35;2.40;;;;;;;28.99;36.64;95032.66;5133134;27;20183;-47
2023/05/02 06:05:58;;;;;;;3.40;2.63;;;;;;;29.12;35.69;95022.81;5133258;27;20290;-53
2023/05/02 06:08:25;;;;;;;2.90;2.60;;;;;;;29.24;35.57;95024.28;5132959;27;20180;-49
2023/05/02 06:10:52;;;;;;;5.13;3.08;;;;;;;29.41;35.45;95026.84;5134553;27;20271;-49
2023/05/02 06:13:18;;;;;;;2.72;2.42;;;;;;;29.19;35.01;94976.81;5132658;27;20189;-48
2023/05/02 06:15:47;;;;;;;3.40;2.50;;;;;;;29.69;34.87;95033.72;5134856;27;20191;-48
2023/05/02 06:18:14;;;;;;;2.85;2.50;;;;;;;29.82;34.27;95039.66;5148436;27;20742;-49
2023/05/02 06:20:40;;;;;;;4.20;2.50;;;;;;;29.91;34.21;95033.66;5132785;27;20188;-47
2023/05/02 06:23:07;;;;;;;3.95;2.40;;;;;;;30.03;34.19;95035.34;5132715;27;20652;-47
2023/05/02 06:25:37;;;;;;;5.13;2.38;;;;;;;30.15;33.53;95034.16;5153724;27;20206;-48
2023/05/02 06:28:05;;;;;;;2.53;2.33;;;;;;;30.28;33.46;95038.22;5145042;27;20224;-48
2023/05/02 06:30:31;;;;;;;3.42;2.65;;;;;;;30.39;33.28;95039.88;5132687;27;20203;-48
2023/05/02 06:32:59;;;;;;;2.78;2.53;;;;;;;30.47;32.73;95046.53;5134334;27;20230;-49
2023/05/02 06:35:26;;;;;;;2.65;2.45;;;;;;;30.54;32.97;95030.50;5153437;27;20184;-49
2023/05/02 06:37:53;;;;;;;2.67;2.38;;;;;;;30.62;32.58;95033.44;5144057;27;20188;-49
2023/05/02 06:40:20;;;;;;;3.25;2.33;;;;;;;30.70;32.31;95037.44;5132405;27;20188;-48
2023/05/02 06:42:46;;;;;;;3.20;2.30;;;;;;;30.77;32.23;95034.59;5132544;27;20637;-49
2023/05/02 06:45:13;;;;;;;4.43;2.65;;;;;;;30.79;32.01;95030.66;5132480;27;20181;-48
2023/05/02 06:47:40;;;;;;;2.90;2.30;;;;;;;30.87;31.54;95050.50;5132354;27;20681;-48
2023/05/02 06:50:10;;;;;;;3.92;2.70;;;;;;;30.91;31.75;95031.22;5142480;27;20628;-48
2023/05/02 06:52:37;;;;;;;3.70;2.30;;;;;;;30.96;31.67;95033.13;5111808;28;20283;-49
2023/05/02 06:55:04;;;;;;;2.50;2.08;;;;;;;31.06;31.26;95032.38;5128200;27;20184;-49
2023/05/02 06:57:31;;;;;;;2.28;2.15;;;;;;;31.09;31.52;95029.19;5132062;27;20180;-48
2023/05/02 06:59:58;;;;;;;4.60;2.45;;;;;;;31.15;31.15;95026.34;5132028;27;20188;-50
2023/05/02 07:02:24;;;;;;;2.88;2.30;;;;;;;31.26;31.22;95036.94;5131851;27;20657;-50
2023/05/02 07:04:51;;;;;;;7.20;2.40;;;;;;;31.32;31.41;95031.44;5131524;27;20180;-49
2023/05/02 07:07:20;;;;;;;3.25;2.25;;;;;;;31.37;31.13;95039.38;5131151;27;20216;-50
2023/05/02 07:09:47;;;;;;;4.50;2.28;;;;;;;31.39;31.02;95033.84;5147434;27;20229;-49
2023/05/02 07:12:14;;;;;;;3.00;2.53;;;;;;;31.39;30.46;95044.41;5152493;27;20204;-49
2023/05/02 07:14:41;;;;;;;3.50;2.53;;;;;;;31.42;30.83;95059.75;5136998;27;20192;-48
2023/05/02 07:17:08;;;;;;;5.63;2.50;;;;;;;31.43;30.80;95048.13;5131605;27;20562;-50
2023/05/02 07:19:35;;;;;;;3.88;2.60;;;;;;;31.42;30.17;95046.53;5131132;27;20602;-48
2023/05/02 07:22:02;;;;;;;5.32;2.30;;;;;;;31.40;30.46;95046.00;5129016;27;20630;-49
2023/05/02 07:24:30;;;;;;;2.45;2.20;;;;;;;31.45;30.43;95048.66;5129600;27;20227;-48
2023/05/02 07:26:57;;;;;;;2.85;2.63;;;;;;;31.45;30.36;95044.16;5127747;27;20230;-48
2023/05/02 07:29:23;;;;;;;4.25;2.50;;;;;;;31.48;30.11;95041.03;5131306;27;20255;-50
2023/05/02 07:31:50;;;;;;;6.43;2.83;;;;;;;31.53;30.36;95044.72;5127728;27;20222;-47
2023/05/02 07:34:17;;;;;;;9.18;2.80;;;;;;;31.54;29.78;95046.31;5130271;27;20172;-49
2023/05/02 07:36:44;;;;;;;2.40;2.20;;;;;;;31.43;30.17;95041.00;5130643;27;20203;-46
2023/05/02 07:39:11;;;;;;;4.13;2.22;;;;;;;31.52;30.08;95045.75;5129402;27;20637;-48
2023/05/02 07:41:39;;;;;;;2.58;2.38;;;;;;;31.46;29.99;95055.53;5130734;27;20631;-48
2023/05/02 07:44:06;;;;;;;2.78;2.42;;;;;;;31.47;29.73;95049.19;5130571;27;20192;-50
2023/05/02 07:46:32;;;;;;;3.05;2.47;;;;;;;31.43;29.96;95063.97;5130165;27;20649;-48
2023/05/02 07:48:59;;;;;;;3.35;2.58;;;;;;;31.39;29.76;95069.03;5130209;27;20604;-48
2023/05/02 07:51:26;;;;;;;3.42;2.25;;;;;;;31.31;29.87;95068.72;5130623;27;20195;-49
2023/05/02 07:53:57;;;;;;;11.57;2.38;;;;;;;31.25;30.00;95057.28;5129659;27;20210;-47
2023/05/02 07:56:24;;;;;;;5.32;2.30;;;;;;;31.21;29.60;95051.72;5130449;27;20184;-48
2023/05/02 07:58:52;;;;;;;4.00;2.22;;;;;;;31.12;29.68;95040.06;5130274;27;20199;-48
2023/05/02 08:01:19;;;;;;;2.92;1.83;;;;;;;31.16;29.35;95042.97;5131157;27;20204;-48
2023/05/02 08:03:46;;;;;;;2.60;2.15;;;;;;;31.14;29.71;95048.53;5132693;27;20288;-50
2023/05/02 08:06:13;;;;;;;3.00;2.20;;;;;;;31.09;29.82;95047.69;5128650;27;20200;-48
2023/05/02 08:08:39;;;;;;;3.15;2.33;;;;;;;31.07;29.74;95047.16;5129969;27;20215;-48
2023/05/02 08:11:06;;;;;;;3.58;2.10;;;;;;;31.04;29.45;95050.31;5130594;27;20200;-48
2023/05/02 08:13:33;;;;;;;7.15;2.20;;;;;;;30.99;29.59;95056.38;5129355;27;20203;-49
2023/05/02 08:16:01;;;;;;;2.95;2.35;;;;;;;30.94;30.15;95051.88;5129548;27;20184;-49
2023/05/02 08:18:28;;;;;;;3.25;2.55;;;;;;;30.63;30.08;95042.94;5130136;27;20705;-48
2023/05/02 08:20:55;;;;;;;3.88;2.58;;;;;;;30.21;30.62;95040.28;5129485;27;20674;-49
2023/05/02 08:23:22;;;;;;;5.85;2.38;;;;;;;30.14;31.01;95042.28;5131475;27;20392;-52
2023/05/02 08:25:49;;;;;;;3.53;2.33;;;;;;;30.17;31.12;95041.81;5129822;27;20240;-51
2023/05/02 08:28:16;;;;;;;3.25;2.33;;;;;;;30.27;30.83;95049.00;5131736;27;20676;-51
2023/05/02 08:30:44;;;;;;;2.75;2.53;;;;;;;30.23;31.09;95019.72;5130749;27;20700;-52
2023/05/02 08:33:12;;;;;;;2.20;2.00;;;;;;;30.46;30.98;95044.94;5130562;27;20196;-51
2023/05/02 08:35:39;;;;;;;3.63;2.20;;;;;;;30.78;30.89;95044.13;5131644;27;20278;-51
2023/05/02 08:38:06;;;;;;;3.85;2.15;;;;;;;31.13;30.44;95054.88;5131420;27;20207;-49
2023/05/02 08:40:36;;;;;;;2.95;2.45;;;;;;;31.54;30.10;95039.19;5131096;27;20195;-49
2023/05/02 08:43:03;;;;;;;3.13;2.20;;;;;;;32.01;29.83;95045.38;5129336;27;20199;-49
2023/05/02 08:45:36;;;;;;;2.35;1.95;;;;;;;32.40;29.70;95053.59;5129122;27;20256;-49
2023/05/02 08:48:07;;;;;;;2.03;1.80;;;;;;;32.69;29.20;95045.91;5129006;27;20315;-50
2023/05/02 08:50:40;;;;;;;3.28;2.55;;;;;;;32.72;29.38;95040.03;5128836;27;20187;-51
2023/05/02 08:53:08;;;;;;;2.17;2.00;;;;;;;32.66;29.53;95038.47;5129000;27;20680;-50
2023/05/02 08:55:38;;;;;;;2.85;2.17;;;;;;;32.54;29.34;95037.97;5129322;27;20191;-49
2023/05/02 08:58:06;;;;;;;4.63;2.30;;;;;;;32.38;29.86;95034.53;5130302;27;20196;-49
2023/05/02 09:00:37;;;;;;;2.42;2.22;;;;;;;32.23;29.85;95036.09;5126563;27;20192;-48
2023/05/02 09:03:11;;;;;;;2.75;2.50;;;;;;;32.13;30.30;95036.13;5128851;27;20282;-48
2023/05/02 09:05:41;;;;;;;4.70;2.20;;;;;;;32.10;30.10;95035.84;5128502;27;20190;-54
2023/05/02 09:08:08;;;;;;;2.13;2.00;;;;;;;32.16;29.82;95029.47;5129421;27;20728;-47
2023/05/02 09:10:36;;;;;;;4.07;2.17;;;;;;;32.25;29.66;95027.09;5130629;27;20702;-49
2023/05/02 09:13:28;;;;;;;4.22;2.17;;;;;;;32.21;29.55;95035.59;5130356;27;20198;-49
2023/05/02 09:15:57;;;;;;;2.47;2.28;;;;;;;32.10;29.97;95026.06;5129194;28;20204;-49
2023/05/02 09:18:24;;;;;;;6.07;2.20;;;;;;;32.01;29.94;95032.94;5129841;28;20279;-49
2023/05/02 09:20:53;;;;;;;5.22;2.10;;;;;;;31.93;29.76;95030.81;5128822;28;20226;-49
2023/05/02 09:23:20;;;;;;;5.65;1.90;;;;;;;31.86;30.18;95023.13;5129505;28;20184;-49
2023/05/02 09:25:48;;;;;;;2.20;2.00;;;;;;;31.77;29.83;95024.66;5125645;28;20576;-50
2023/05/02 09:28:14;;;;;;;3.83;2.30;;;;;;;31.63;29.75;95019.09;5128817;28;20237;-49
2023/05/02 09:30:41;;;;;;;2.13;2.03;;;;;;;31.46;29.98;95021.16;5128141;28;20198;-49
2023/05/02 09:33:09;;;;;;;2.17;1.98;;;;;;;31.36;30.09;95021.16;5129375;28;20207;-50
2023/05/02 09:35:35;;;;;;;3.28;2.65;;;;;;;31.38;30.09;95021.69;5129949;27;20203;-49
2023/05/02 09:38:04;;;;;;;7.25;2.45;;;;;;;31.37;29.60;95012.94;5132131;27;20204;-49
2023/05/02 09:40:31;;;;;;;2.30;2.10;;;;;;;31.32;29.99;95017.44;5133061;27;20199;-49
2023/05/02 09:42:58;;;;;;;2.10;2.00;;;;;;;31.24;29.74;95013.41;5132937;27;20188;-49
2023/05/02 09:45:26;;;;;;;3.47;1.90;;;;;;;31.02;29.66;94983.75;5132828;27;20188;-49
2023/05/02 09:47:53;;;;;;;2.95;2.25;;;;;;;31.01;29.70;95008.59;5132483;27;20683;-51
2023/05/02 09:50:34;;;;;;;3.42;2.55;;;;;;;30.92;29.68;95001.16;5132949;27;20276;-48
2023/05/02 09:53:02;;;;;;;2.10;1.90;;;;;;;30.81;29.54;95002.16;5132627;27;20603;-49
2023/05/02 09:55:31;;;;;;;3.03;2.00;;;;;;;30.50;30.15;94974.75;5130898;27;20613;-49
2023/05/02 09:57:57;;;;;;;2.35;2.25;;;;;;;30.53;29.68;95002.47;5132148;27;20235;-50
2023/05/02 10:00:38;;;;;;;2.92;2.53;;;;;;;30.37;30.08;95001.59;5133329;27;20192;-51
2023/05/02 10:03:07;;;;;;;2.67;1.90;;;;;;;30.18;29.75;95001.19;5130834;27;20196;-50
2023/05/02 10:05:37;;;;;;;3.30;2.17;;;;;;;30.05;30.06;94996.31;5132253;27;20287;-48
2023/05/02 10:08:05;;;;;;;2.13;2.03;;;;;;;29.98;29.99;94992.06;5132257;27;20212;-49
2023/05/02 10:10:36;;;;;;;2.30;2.05;;;;;;;29.86;30.04;94994.06;5132105;27;20192;-49
2023/05/02 10:13:04;;;;;;;3.90;2.00;;;;;;;29.72;30.00;94985.78;5132193;27;20192;-48
2023/05/02 10:15:32;;;;;;;2.00;1.90;;;;;;;29.62;30.10;94976.97;5132611;27;20192;-50
2023/05/02 10:18:00;;;;;;;2.20;2.00;;;;;;;29.54;30.55;94982.69;5132100;27;20185;-47
2023/05/02 10:20:32;;;;;;;2.75;2.30;;;;;;;29.48;30.51;94979.19;5129450;27;20214;-51
2023/05/02 10:23:00;;;;;;;2.17;2.00;;;;;;;29.41;30.40;94979.41;5129281;27;20676;-49
2023/05/02 10:25:28;;;;;;;2.38;2.13;;;;;;;29.25;30.08;94964.47;5132019;27;20291;-48
2023/05/02 10:27:58;;;;;;;3.05;2.03;;;;;;;29.26;30.53;94958.16;5131923;27;20312;-50
2023/05/02 10:30:25;;;;;;;4.45;2.05;;;;;;;29.44;30.31;94970.19;5131802;27;20669;-50
2023/05/02 10:32:54;;;;;;;2.65;2.40;;;;;;;29.11;30.32;94908.75;5131820;27;20272;-49
2023/05/02 10:35:23;;;;;;;2.28;1.85;;;;;;;29.47;30.30;94967.06;5132002;27;20371;-49
2023/05/02 10:37:50;;;;;;;3.70;2.05;;;;;;;29.41;30.10;94970.69;5131382;27;20275;-49
2023/05/02 10:40:18;;;;;;;2.70;2.30;;;;;;;29.24;30.35;94961.03;5131520;27;20204;-51
2023/05/02 10:42:49;;;;;;;2.50;2.30;;;;;;;29.17;30.29;94957.00;5131716;27;20192;-49
2023/05/02 10:45:32;;;;;;;1.90;1.80;;;;;;;29.08;30.08;94961.13;5131557;27;20200;-49
2023/05/02 10:48:19;;;;;;;6.78;2.13;;;;;;;29.02;30.29;94957.66;5129558;27;20798;-49
2023/05/02 10:50:47;;;;;;;2.20;2.10;;;;;;;28.97;30.18;94955.75;5131975;27;20286;-50
2023/05/02 10:53:28;;;;;;;2.78;2.10;;;;;;;28.91;30.13;94945.38;5130116;27;20197;-50
2023/05/02 10:56:15;;;;;;;3.40;2.00;;;;;;;28.94;30.42;94953.56;5129911;27;20653;-52
2023/05/02 10:58:43;;;;;;;2.67;1.90;;;;;;;28.94;30.34;94952.78;5130391;27;20279;-50
2023/05/02 11:01:38;;;;;;;2.05;1.95;;;;;;;28.90;30.51;94943.78;5131811;27;20196;-49
2023/05/02 11:04:09;;;;;;;2.30;2.10;;;;;;;28.83;30.38;94941.31;5068347;28;20233;-49
2023/05/02 11:06:57;;;;;;;2.83;1.90;;;;;;;28.80;30.16;94941.00;5067815;28;20194;-48
2023/05/02 11:09:32;;;;;;;2.10;2.00;;;;;;;28.70;30.08;94942.47;5067363;28;20229;-49
2023/05/02 11:12:00;;;;;;;3.40;1.63;;;;;;;28.60;30.08;94941.56;5068507;28;20285;-49
2023/05/02 11:14:46;;;;;;;2.45;1.98;;;;;;;28.52;30.30;94942.00;5065870;28;20889;-51
2023/05/02 11:17:15;;;;;;;1.70;1.60;;;;;;;28.46;30.26;94946.41;5067727;28;20209;-51
2023/05/02 11:20:27;;;;;;;2.20;2.00;;;;;;;28.39;30.34;94941.31;5067688;28;20290;-50
2023/05/02 11:22:58;;;;;;;2.22;1.90;;;;;;;28.33;30.42;94937.00;5067162;28;20185;-49
2023/05/02 11:25:38;;;;;;;3.17;2.33;;;;;;;28.32;30.50;94924.06;5067829;28;20734;-54
2023/05/02 11:28:08;;;;;;;1.98;1.88;;;;;;;28.17;30.52;94912.31;5066967;28;21055;-50
2023/05/02 11:30:43;;;;;;;4.03;1.98;;;;;;;28.30;30.49;94916.41;5068483;28;20329;-50
2023/05/02 11:33:16;;;;;;;2.55;1.92;;;;;;;28.33;30.21;94920.41;5066841;28;20729;-50
2023/05/02 11:35:45;;;;;;;2.13;1.95;;;;;;;28.38;30.19;94921.31;5067625;28;20190;-49
2023/05/02 11:38:13;;;;;;;1.95;1.80;;;;;;;28.46;29.95;94920.88;5066871;28;20198;-49
2023/05/02 11:40:40;;;;;;;2.83;1.80;;;;;;;28.52;30.33;94905.16;5100484;27;20192;-49
2023/05/02 11:43:14;;;;;;;1.92;1.83;;;;;;;28.60;30.01;94905.53;5130153;27;20192;-50